Rocky Hill, Connecticut
Current Conditions -  °F | °C
As of 9:53 AM on Saturday 25 Oct 2014 (Local Time) from KHFD Reporting Station
Clear Clear  
Wind Chill: 53°   Ceiling: Unl
Heat Index: 53°   Visibility: 10mi
Dew Point: 42°   Wind: 5mph
Humidity: 66%   Direction: NA
Pressure: 29.81"   Gusts: NA
Location:  41.67°N, 72.64°W
Report Text: KHFD 251353Z VRB04KT 10SM CLR 12/06 A2981 RMK AO2 SLP094 T01170056
Loading
Personal Weather Stations






























Interactive Weather Map
Tropical Storm Tracking
New forecast layout! Learn more

10-Day Weather Forecast

Advertisements
Track Severe Weather on mobile